AVA9813 SKBO-SKPE
Flight info
| Callsign | AVA9813 |
|---|---|
| Flight time | 0h 26m |
| Altitude | 18000 |
| Route | ISNOX2S ISNOX ISNOX1C |
| Aircraft | A320/M-SDE3FGHIRWY/LB1 |
Departure
| Time | 2026-05-06 00:26 |
|---|---|
| Airport | El Dorado International Airport (SKBO) |
Arrival
| Time | 2026-05-06 00:52 |
|---|---|
| Airport | Matecaña International Airport (SKPE) |
| Time | Latitude | Longitude | Altitude | Speed | Heading |
|---|---|---|---|---|---|
| 2026-05-05 23:54 | 4.69764 | -74.14505 | 8373 ft | 0 kts | 37° |
| 2026-05-06 00:14 | 4.69752 | -74.14514 | 8370 ft | 4 kts | 38° |
| 2026-05-06 00:15 | 4.69734 | -74.14527 | 8372 ft | 4 kts | 12° |
| 2026-05-06 00:15 | 4.69711 | -74.14523 | 8373 ft | 4 kts | 321° |
| 2026-05-06 00:15 | 4.69692 | -74.14504 | 8373 ft | 4 kts | 307° |
| 2026-05-06 00:15 | 4.69698 | -74.14511 | 8373 ft | 4 kts | 307° |
| 2026-05-06 00:16 | 4.69715 | -74.14533 | 8373 ft | 4 kts | 307° |
| 2026-05-06 00:16 | 4.69718 | -74.14537 | 8373 ft | 0 kts | 307° |
| 2026-05-06 00:18 | 4.69731 | -74.14554 | 8373 ft | 6 kts | 307° |
| 2026-05-06 00:18 | 4.69768 | -74.14605 | 8373 ft | 12 kts | 306° |
| 2026-05-06 00:19 | 4.69828 | -74.14684 | 8373 ft | 17 kts | 308° |
| 2026-05-06 00:19 | 4.69910 | -74.14789 | 8373 ft | 21 kts | 307° |
| 2026-05-06 00:19 | 4.69905 | -74.14901 | 8373 ft | 17 kts | 217° |
| 2026-05-06 00:19 | 4.69874 | -74.14996 | 8372 ft | 16 kts | 296° |
| 2026-05-06 00:20 | 4.69939 | -74.15085 | 8371 ft | 16 kts | 308° |
| 2026-05-06 00:20 | 4.70008 | -74.15176 | 8373 ft | 17 kts | 307° |
| 2026-05-06 00:20 | 4.70078 | -74.15271 | 8373 ft | 17 kts | 305° |
| 2026-05-06 00:20 | 4.70153 | -74.15370 | 8373 ft | 18 kts | 308° |
| 2026-05-06 00:21 | 4.70231 | -74.15472 | 8373 ft | 19 kts | 307° |
| 2026-05-06 00:21 | 4.70310 | -74.15577 | 8373 ft | 19 kts | 307° |
| 2026-05-06 00:21 | 4.70391 | -74.15685 | 8373 ft | 20 kts | 307° |
| 2026-05-06 00:21 | 4.70473 | -74.15793 | 8373 ft | 20 kts | 309° |
| 2026-05-06 00:22 | 4.70560 | -74.15905 | 8371 ft | 22 kts | 308° |
| 2026-05-06 00:22 | 4.70657 | -74.16036 | 8373 ft | 25 kts | 306° |
| 2026-05-06 00:22 | 4.70768 | -74.16181 | 8373 ft | 28 kts | 307° |
| 2026-05-06 00:22 | 4.70890 | -74.16340 | 8369 ft | 29 kts | 308° |
| 2026-05-06 00:23 | 4.71008 | -74.16498 | 8373 ft | 28 kts | 307° |
| 2026-05-06 00:23 | 4.71127 | -74.16657 | 8373 ft | 29 kts | 307° |
| 2026-05-06 00:23 | 4.71243 | -74.16819 | 8374 ft | 24 kts | 295° |
| 2026-05-06 00:23 | 4.71162 | -74.16884 | 8373 ft | 17 kts | 188° |
| 2026-05-06 00:24 | 4.71058 | -74.16899 | 8373 ft | 10 kts | 203° |
| 2026-05-06 00:24 | 4.71027 | -74.16877 | 8373 ft | 0 kts | 127° |
| 2026-05-06 00:25 | 4.71007 | -74.16850 | 8370 ft | 21 kts | 127° |
| 2026-05-06 00:25 | 4.70766 | -74.16532 | 8375 ft | 90 kts | 127° |
| 2026-05-06 00:25 | 4.70268 | -74.15873 | 8373 ft | 145 kts | 127° |
| 2026-05-06 00:26 | 4.69568 | -74.14951 | 8413 ft | 184 kts | 127° |
| 2026-05-06 00:26 | 4.68807 | -74.13961 | 9145 ft | 181 kts | 129° |
| 2026-05-06 00:26 | 4.67782 | -74.13252 | 9829 ft | 185 kts | 169° |
| 2026-05-06 00:26 | 4.66534 | -74.13525 | 10370 ft | 192 kts | 216° |
| 2026-05-06 00:27 | 4.65690 | -74.14558 | 10901 ft | 193 kts | 235° |
| 2026-05-06 00:27 | 4.64953 | -74.15683 | 11413 ft | 193 kts | 234° |
| 2026-05-06 00:27 | 4.64187 | -74.16840 | 11672 ft | 209 kts | 234° |
| 2026-05-06 00:27 | 4.63336 | -74.18117 | 11838 ft | 231 kts | 234° |
| 2026-05-06 00:28 | 4.62396 | -74.19516 | 11999 ft | 252 kts | 234° |
| 2026-05-06 00:28 | 4.61531 | -74.21083 | 12526 ft | 263 kts | 252° |
| 2026-05-06 00:28 | 4.61096 | -74.22941 | 12848 ft | 286 kts | 257° |
| 2026-05-06 00:28 | 4.60697 | -74.24976 | 13135 ft | 309 kts | 258° |
| 2026-05-06 00:29 | 4.60243 | -74.27162 | 13370 ft | 332 kts | 251° |
| 2026-05-06 00:29 | 4.59219 | -74.29305 | 13565 ft | 353 kts | 237° |
| 2026-05-06 00:29 | 4.57966 | -74.31494 | 13900 ft | 369 kts | 240° |
| 2026-05-06 00:29 | 4.56782 | -74.33802 | 14445 ft | 376 kts | 242° |
| 2026-05-06 00:30 | 4.55625 | -74.36177 | 14967 ft | 382 kts | 243° |
| 2026-05-06 00:30 | 4.54465 | -74.38581 | 15557 ft | 385 kts | 243° |
| 2026-05-06 00:30 | 4.53282 | -74.41000 | 16134 ft | 389 kts | 242° |
| 2026-05-06 00:30 | 4.52062 | -74.43443 | 16710 ft | 393 kts | 242° |
| 2026-05-06 00:31 | 4.50831 | -74.45865 | 17248 ft | 397 kts | 242° |
| 2026-05-06 00:31 | 4.49560 | -74.48340 | 17714 ft | 402 kts | 242° |
| 2026-05-06 00:31 | 4.48275 | -74.50834 | 17770 ft | 406 kts | 241° |
| 2026-05-06 00:31 | 4.46956 | -74.53392 | 17796 ft | 416 kts | 241° |
| 2026-05-06 00:32 | 4.45623 | -74.55980 | 17796 ft | 419 kts | 242° |
| 2026-05-06 00:32 | 4.44289 | -74.58575 | 17799 ft | 419 kts | 242° |
| 2026-05-06 00:32 | 4.42958 | -74.61177 | 17795 ft | 419 kts | 242° |
| 2026-05-06 00:32 | 4.41630 | -74.63778 | 17794 ft | 419 kts | 242° |
| 2026-05-06 00:33 | 4.40487 | -74.66472 | 17741 ft | 420 kts | 251° |
| 2026-05-06 00:33 | 4.39852 | -74.69296 | 17736 ft | 420 kts | 262° |
| 2026-05-06 00:33 | 4.39742 | -74.72216 | 17738 ft | 421 kts | 274° |
| 2026-05-06 00:33 | 4.40003 | -74.75135 | 17739 ft | 421 kts | 275° |
| 2026-05-06 00:34 | 4.40275 | -74.78055 | 17742 ft | 421 kts | 275° |
| 2026-05-06 00:34 | 4.40541 | -74.80973 | 17725 ft | 420 kts | 275° |
| 2026-05-06 00:34 | 4.40804 | -74.83888 | 17732 ft | 420 kts | 275° |
| 2026-05-06 00:34 | 4.41064 | -74.86805 | 17729 ft | 420 kts | 275° |
| 2026-05-06 00:35 | 4.41324 | -74.89723 | 17726 ft | 420 kts | 275° |
| 2026-05-06 00:35 | 4.41585 | -74.92643 | 17725 ft | 420 kts | 275° |
| 2026-05-06 00:35 | 4.41845 | -74.95554 | 17752 ft | 420 kts | 275° |
| 2026-05-06 00:35 | 4.42107 | -74.98469 | 17746 ft | 420 kts | 275° |
| 2026-05-06 00:36 | 4.42372 | -75.01388 | 17675 ft | 420 kts | 275° |
| 2026-05-06 00:36 | 4.42638 | -75.04308 | 17671 ft | 421 kts | 275° |
| 2026-05-06 00:36 | 4.42903 | -75.07228 | 17668 ft | 421 kts | 275° |
| 2026-05-06 00:36 | 4.43168 | -75.10147 | 17674 ft | 421 kts | 275° |
| 2026-05-06 00:37 | 4.43433 | -75.13070 | 17677 ft | 421 kts | 275° |
| 2026-05-06 00:37 | 4.43695 | -75.15991 | 17674 ft | 421 kts | 275° |
| 2026-05-06 00:37 | 4.43957 | -75.18910 | 17676 ft | 421 kts | 275° |
| 2026-05-06 00:37 | 4.44223 | -75.21833 | 17674 ft | 421 kts | 275° |
| 2026-05-06 00:38 | 4.44490 | -75.24753 | 17687 ft | 421 kts | 275° |
| 2026-05-06 00:38 | 4.44757 | -75.27677 | 17701 ft | 421 kts | 275° |
| 2026-05-06 00:38 | 4.45023 | -75.30598 | 17722 ft | 421 kts | 275° |
| 2026-05-06 00:38 | 4.45285 | -75.33526 | 17736 ft | 421 kts | 275° |
| 2026-05-06 00:39 | 4.45541 | -75.36407 | 17762 ft | 421 kts | 275° |
| 2026-05-06 00:39 | 4.45799 | -75.39329 | 17777 ft | 421 kts | 275° |
| 2026-05-06 00:39 | 4.46060 | -75.42252 | 17801 ft | 421 kts | 275° |
| 2026-05-06 00:39 | 4.46322 | -75.45175 | 17817 ft | 421 kts | 275° |
| 2026-05-06 00:40 | 4.46589 | -75.48104 | 17807 ft | 421 kts | 275° |
| 2026-05-06 00:40 | 4.46856 | -75.51025 | 17784 ft | 422 kts | 276° |
| 2026-05-06 00:40 | 4.47292 | -75.53924 | 17766 ft | 421 kts | 284° |
| 2026-05-06 00:40 | 4.48201 | -75.56704 | 17752 ft | 420 kts | 294° |
| 2026-05-06 00:41 | 4.49569 | -75.59276 | 17738 ft | 417 kts | 305° |
| 2026-05-06 00:41 | 4.51350 | -75.61557 | 17730 ft | 415 kts | 315° |
| 2026-05-06 00:41 | 4.53479 | -75.63470 | 17732 ft | 405 kts | 326° |
| 2026-05-06 00:41 | 4.55791 | -75.65041 | 17735 ft | 398 kts | 329° |
| 2026-05-06 00:42 | 4.58201 | -75.66326 | 17736 ft | 385 kts | 336° |
| 2026-05-06 00:42 | 4.60557 | -75.67470 | 17741 ft | 368 kts | 336° |
| 2026-05-06 00:42 | 4.62807 | -75.68564 | 17747 ft | 351 kts | 337° |
| 2026-05-06 00:42 | 4.64956 | -75.69609 | 17739 ft | 336 kts | 337° |
| 2026-05-06 00:43 | 4.66904 | -75.70831 | 17730 ft | 326 kts | 320° |
| 2026-05-06 00:43 | 4.68285 | -75.72583 | 17728 ft | 317 kts | 298° |
| 2026-05-06 00:43 | 4.68998 | -75.74632 | 17723 ft | 305 kts | 285° |
| 2026-05-06 00:43 | 4.69504 | -75.76645 | 17712 ft | 290 kts | 285° |
| 2026-05-06 00:44 | 4.69978 | -75.78557 | 17569 ft | 278 kts | 283° |
| 2026-05-06 00:44 | 4.70135 | -75.80472 | 17117 ft | 274 kts | 266° |
| 2026-05-06 00:44 | 4.69767 | -75.82326 | 16663 ft | 270 kts | 250° |
| 2026-05-06 00:44 | 4.69190 | -75.84078 | 16110 ft | 267 kts | 250° |
| 2026-05-06 00:45 | 4.68609 | -75.85865 | 15507 ft | 265 kts | 250° |
| 2026-05-06 00:45 | 4.68049 | -75.87594 | 14945 ft | 263 kts | 250° |
| 2026-05-06 00:45 | 4.67486 | -75.89330 | 14384 ft | 261 kts | 250° |
| 2026-05-06 00:45 | 4.66928 | -75.91050 | 13820 ft | 258 kts | 250° |
| 2026-05-06 00:46 | 4.66641 | -75.92809 | 13188 ft | 257 kts | 276° |
| 2026-05-06 00:46 | 4.67268 | -75.94443 | 12537 ft | 251 kts | 309° |
| 2026-05-06 00:46 | 4.68608 | -75.95485 | 11976 ft | 243 kts | 340° |
| 2026-05-06 00:46 | 4.70198 | -75.96017 | 11396 ft | 240 kts | 345° |
| 2026-05-06 00:47 | 4.71810 | -75.96341 | 10859 ft | 233 kts | 5° |
| 2026-05-06 00:47 | 4.73317 | -75.95920 | 10419 ft | 222 kts | 32° |
| 2026-05-06 00:47 | 4.74407 | -75.94871 | 9930 ft | 217 kts | 60° |
| 2026-05-06 00:47 | 4.74963 | -75.93477 | 9475 ft | 216 kts | 72° |
| 2026-05-06 00:48 | 4.75423 | -75.92046 | 8914 ft | 216 kts | 72° |
| 2026-05-06 00:48 | 4.75884 | -75.90614 | 8370 ft | 215 kts | 72° |
| 2026-05-06 00:48 | 4.76345 | -75.89186 | 7839 ft | 215 kts | 71° |
| 2026-05-06 00:48 | 4.76803 | -75.87770 | 7312 ft | 210 kts | 71° |
| 2026-05-06 00:49 | 4.77241 | -75.86413 | 6833 ft | 200 kts | 71° |
| 2026-05-06 00:49 | 4.77665 | -75.85102 | 6361 ft | 196 kts | 71° |
| 2026-05-06 00:49 | 4.78084 | -75.83807 | 5910 ft | 193 kts | 71° |
| 2026-05-06 00:49 | 4.78474 | -75.82596 | 5814 ft | 170 kts | 71° |
| 2026-05-06 00:50 | 4.78825 | -75.81510 | 5645 ft | 158 kts | 71° |
| 2026-05-06 00:50 | 4.79159 | -75.80480 | 5467 ft | 153 kts | 71° |
| 2026-05-06 00:50 | 4.79480 | -75.79487 | 5286 ft | 150 kts | 71° |
| 2026-05-06 00:50 | 4.79800 | -75.78500 | 5113 ft | 148 kts | 72° |
| 2026-05-06 00:51 | 4.80123 | -75.77517 | 4897 ft | 145 kts | 73° |
| 2026-05-06 00:51 | 4.80417 | -75.76569 | 4748 ft | 144 kts | 73° |
| 2026-05-06 00:51 | 4.80732 | -75.75617 | 4556 ft | 144 kts | 73° |
| 2026-05-06 00:51 | 4.81038 | -75.74665 | 4375 ft | 142 kts | 73° |
| 2026-05-06 00:52 | 4.81296 | -75.73874 | 4394 ft | 82 kts | 71° |
| 2026-05-06 00:52 | 4.81394 | -75.73573 | 4405 ft | 29 kts | 72° |
| 2026-05-06 00:52 | 4.81464 | -75.73471 | 4410 ft | 13 kts | 351° |
| 2026-05-06 00:52 | 4.81515 | -75.73526 | 4409 ft | 11 kts | 272° |
| 2026-05-06 00:53 | 4.81489 | -75.73605 | 4406 ft | 13 kts | 251° |
| 2026-05-06 00:53 | 4.81460 | -75.73691 | 4402 ft | 14 kts | 251° |
| 2026-05-06 00:53 | 4.81466 | -75.73746 | 4401 ft | 7 kts | 337° |
| 2026-05-06 00:53 | 4.81498 | -75.73756 | 4401 ft | 0 kts | 342° |